Terminal Aerodrome Forecast
Issued by NWS

Home | Current Version | Previous Version | Text Only | Print | Product List | Glossary On
Versions: 1 2 3 4 5 6 7 8 9 10 11 12 13 14 15 16 17 18 19 20
709
FTUS42 KMLB 200527
TAFTIX
TAF
KTIX 200527Z 2006/2106 12005KT P6SM -RA SCT020 BKN040 OVC100
     FM201200 14012KT P6SM VCSH SCT025 OVC050
      TEMPO 2014/2018 3SM SHRA BKN025
     FM202300 13007KT P6SM SCT025 BKN100
      AMD NOT SKED TIL 201100=

USA.gov is the U.S. government's official web portal to all federal, state and local government web resources and services.